Time;durP1;ratioP1;P1;durP2;ratioP2;P2;SDS_P1;SDS_P2;PMS_P1;PMS_P2;Temp;Humidity;BMP_temperature;BMP_pressure;BME280_temperature;BME280_humidity;BME280_pressure;Samples;Min_cycle;Max_cycle;Signal;HPM_P1;HPM_P2
2021/04/07 00:00:10;;;;;;;9.18;5.07;;;0.30;99.90;;;;;;5067971;28;20420;-63
2021/04/07 00:02:35;;;;;;;7.32;4.50;;;0.30;99.90;;;;;;5068082;28;20394;-62
2021/04/07 00:05:08;;;;;;;8.00;4.70;;;2.80;99.90;;;;;;5070149;28;20467;-63
2021/04/07 00:07:34;;;;;;;8.57;4.60;;;0.30;99.90;;;;;;5068293;28;20444;-62
2021/04/07 00:10:00;;;;;;;8.02;4.22;;;0.60;99.90;;;;;;5069763;28;20392;-64
2021/04/07 00:12:26;;;;;;;6.47;3.40;;;0.60;99.90;;;;;;5066823;28;20954;-64
2021/04/07 00:14:51;;;;;;;10.87;4.87;;;1.80;99.90;;;;;;5068769;28;20391;-64
2021/04/07 00:17:17;;;;;;;8.13;4.32;;;2.50;99.90;;;;;;5067250;28;20399;-63
2021/04/07 00:19:43;;;;;;;8.80;4.05;;;0.40;99.90;;;;;;5066871;28;20445;-61
2021/04/07 00:22:08;;;;;;;8.80;3.90;;;0.30;99.90;;;;;;5069330;28;20868;-55
2021/04/07 00:24:34;;;;;;;9.10;4.10;;;0.50;99.90;;;;;;5069468;28;20478;-63
2021/04/07 00:27:06;;;;;;;8.20;4.13;;;0.60;99.90;;;;;;5068140;28;20421;-62
2021/04/07 00:29:32;;;;;;;10.38;4.68;;;0.30;99.90;;;;;;5069080;28;20479;-62
2021/04/07 00:31:58;;;;;;;8.40;4.43;;;0.70;99.90;;;;;;5069629;28;20455;-63
2021/04/07 00:34:23;;;;;;;9.15;4.30;;;0.20;99.90;;;;;;5068677;28;20765;-62
2021/04/07 00:36:49;;;;;;;9.90;4.60;;;2.60;99.90;;;;;;5069561;28;20470;-63
2021/04/07 00:39:14;;;;;;;7.80;4.30;;;2.50;99.90;;;;;;5067680;28;20392;-61
2021/04/07 00:41:40;;;;;;;12.80;4.95;;;0.70;99.90;;;;;;5069110;28;20420;-61
2021/04/07 00:44:06;;;;;;;10.30;4.93;;;1.30;99.90;;;;;;5069798;28;20380;-62
2021/04/07 00:46:36;;;;;;;10.45;5.10;;;0.20;99.90;;;;;;5068413;28;20375;-61
2021/04/07 00:49:02;;;;;;;9.55;4.80;;;0.50;99.90;;;;;;5069626;28;20387;-62
2021/04/07 00:51:28;;;;;;;9.50;4.60;;;0.30;99.90;;;;;;5068928;28;20445;-63
2021/04/07 00:53:54;;;;;;;9.38;5.40;;;1.90;99.90;;;;;;5069680;28;20380;-63
2021/04/07 00:56:19;;;;;;;8.70;4.97;;;0.20;99.90;;;;;;5069106;28;20780;-62
2021/04/07 00:58:45;;;;;;;8.30;4.73;;;0.20;99.90;;;;;;5069802;28;20395;-62
2021/04/07 01:01:11;;;;;;;10.17;5.03;;;2.30;99.90;;;;;;5068774;28;20474;-55
2021/04/07 01:03:37;;;;;;;10.57;5.17;;;0.20;99.90;;;;;;5069249;28;20405;-61
2021/04/07 01:06:04;;;;;;;9.60;5.20;;;0.20;99.90;;;;;;5069256;28;20425;-62
2021/04/07 01:08:29;;;;;;;11.23;5.40;;;0.10;99.90;;;;;;5068722;28;20394;-62
2021/04/07 01:10:55;;;;;;;9.13;5.22;;;0.40;99.90;;;;;;5069479;28;20384;-59
2021/04/07 01:13:21;;;;;;;10.50;5.27;;;0.90;99.90;;;;;;5068515;28;20424;-61
2021/04/07 01:15:46;;;;;;;11.93;5.40;;;0.00;99.90;;;;;;5068741;28;20388;-62
2021/04/07 01:18:12;;;;;;;12.95;6.03;;;-0.10;99.90;;;;;;5068575;28;20390;-55
2021/04/07 01:20:38;;;;;;;11.25;5.80;;;0.00;99.90;;;;;;5069206;28;20418;-62
2021/04/07 01:23:05;;;;;;;10.55;5.30;;;-0.10;99.90;;;;;;5069011;28;20376;-62
2021/04/07 01:25:32;;;;;;;11.20;6.15;;;-0.20;99.90;;;;;;5067850;28;20395;-62
2021/04/07 01:28:00;;;;;;;13.10;5.90;;;-0.20;99.90;;;;;;5068977;28;20904;-62
2021/04/07 01:30:26;;;;;;;11.70;5.90;;;0.30;99.90;;;;;;5069313;28;20399;-62
2021/04/07 01:32:51;;;;;;;12.20;6.40;;;0.00;99.90;;;;;;5072962;28;20723;-60
2021/04/07 01:35:19;;;;;;;12.45;5.80;;;0.00;99.90;;;;;;5071593;28;20395;-61
2021/04/07 01:37:45;;;;;;;11.25;6.43;;;2.10;99.90;;;;;;5072494;28;20378;-62
2021/04/07 01:40:14;;;;;;;13.00;6.60;;;0.00;99.90;;;;;;5072392;28;20407;-55
2021/04/07 01:42:42;;;;;;;11.52;6.10;;;0.00;99.90;;;;;;5072779;28;20378;-62
2021/04/07 01:45:09;;;;;;;13.20;6.20;;;1.50;99.90;;;;;;5072654;28;20774;-62
2021/04/07 01:47:35;;;;;;;12.90;6.80;;;0.00;99.90;;;;;;5072091;28;20380;-62
2021/04/07 01:50:03;;;;;;;11.50;6.70;;;1.70;99.90;;;;;;5072729;28;20380;-61
2021/04/07 01:52:29;;;;;;;12.50;6.90;;;0.10;99.90;;;;;;5071659;28;20379;-62
2021/04/07 01:54:55;;;;;;;14.80;7.50;;;1.80;99.90;;;;;;5072716;28;20388;-63
2021/04/07 01:57:22;;;;;;;13.80;7.63;;;1.70;99.90;;;;;;5071662;28;20722;-61
2021/04/07 01:59:47;;;;;;;15.18;7.45;;;1.90;99.90;;;;;;5072075;28;20380;-61
2021/04/07 02:02:13;;;;;;;12.73;7.83;;;2.60;99.90;;;;;;5071941;28;20386;-54
2021/04/07 02:04:40;;;;;;;13.90;7.73;;;-0.20;99.90;;;;;;5072266;28;20485;-61
2021/04/07 02:07:13;;;;;;;15.18;7.45;;;0.90;99.90;;;;;;5072061;28;20383;-62
2021/04/07 02:09:39;;;;;;;14.10;7.70;;;-0.30;99.90;;;;;;5072018;28;20500;-62
2021/04/07 02:12:05;;;;;;;16.10;8.00;;;1.50;99.90;;;;;;5072704;28;20386;-62
2021/04/07 02:14:31;;;;;;;16.00;7.90;;;-0.30;99.90;;;;;;5071385;28;20830;-62
2021/04/07 02:16:59;;;;;;;15.05;7.63;;;2.30;99.90;;;;;;5071611;28;20379;-61
2021/04/07 02:19:27;;;;;;;13.85;7.63;;;2.30;99.90;;;;;;5070621;28;20372;-62
2021/04/07 02:22:08;;;;;;;14.63;7.75;;;-0.30;99.90;;;;;;5053790;28;20446;-62
2021/04/07 02:24:39;;;;;;;12.82;7.20;;;-0.30;99.90;;;;;;5070724;28;20673;-61
2021/04/07 02:27:22;;;;;;;13.15;8.10;;;1.50;99.90;;;;;;5070756;28;20379;-62
2021/04/07 02:29:50;;;;;;;15.15;8.13;;;-0.40;99.90;;;;;;5070621;28;20449;-61
2021/04/07 02:32:17;;;;;;;15.65;8.00;;;-0.40;99.90;;;;;;5071351;28;20853;-62
2021/04/07 02:34:43;;;;;;;14.88;7.80;;;0.20;99.90;;;;;;5070102;28;20384;-62
2021/04/07 02:37:10;;;;;;;14.65;8.40;;;1.20;99.90;;;;;;5071679;28;20376;-63
2021/04/07 02:39:36;;;;;;;15.00;7.57;;;0.40;99.90;;;;;;5070611;28;20940;-57
2021/04/07 02:42:02;;;;;;;12.80;7.60;;;0.30;99.90;;;;;;5069349;28;20506;-62
2021/04/07 02:44:28;;;;;;;18.10;8.30;;;-0.20;99.90;;;;;;5052968;28;20388;-63
2021/04/07 02:46:53;;;;;;;16.13;9.20;;;-0.20;99.90;;;;;;5071553;28;20857;-63
2021/04/07 02:49:19;;;;;;;14.77;8.07;;;0.00;99.90;;;;;;5068659;28;20395;-62
2021/04/07 02:51:46;;;;;;;13.88;7.55;;;0.70;99.90;;;;;;5070281;28;20395;-62
2021/04/07 02:54:12;;;;;;;11.82;7.25;;;0.30;99.90;;;;;;5070074;28;20716;-54
2021/04/07 02:56:38;;;;;;;13.23;7.18;;;0.00;99.90;;;;;;5071432;28;20379;-62
2021/04/07 02:59:04;;;;;;;11.57;6.57;;;2.50;99.90;;;;;;5069783;28;20392;-64
2021/04/07 03:01:29;;;;;;;15.20;7.30;;;0.30;99.90;;;;;;5069911;28;20403;-63
2021/04/07 03:03:55;;;;;;;11.82;6.97;;;3.00;99.90;;;;;;5071582;28;20860;-63
2021/04/07 03:06:20;;;;;;;13.73;7.30;;;1.80;99.90;;;;;;5068155;28;20939;-63
2021/04/07 03:08:48;;;;;;;13.73;7.10;;;2.20;99.90;;;;;;5069502;28;20404;-59
2021/04/07 03:11:13;;;;;;;11.50;6.30;;;1.50;99.90;;;;;;5050638;28;20385;-56
2021/04/07 03:13:39;;;;;;;16.42;7.15;;;0.60;99.90;;;;;;5063247;28;20465;-63
2021/04/07 03:16:05;;;;;;;12.30;6.18;;;1.40;99.90;;;;;;5071233;28;20456;-63
2021/04/07 03:18:31;;;;;;;14.50;6.60;;;0.20;99.90;;;;;;5062751;28;20875;-64
2021/04/07 03:20:57;;;;;;;13.10;6.47;;;0.20;99.90;;;;;;5049565;28;20419;-65
2021/04/07 03:23:22;;;;;;;11.30;5.63;;;0.20;99.90;;;;;;5069637;28;20457;-65
2021/04/07 03:25:48;;;;;;;10.10;5.33;;;0.20;99.90;;;;;;5069578;28;20853;-65
2021/04/07 03:28:13;;;;;;;11.35;5.90;;;2.60;99.90;;;;;;5070527;28;20805;-57
2021/04/07 03:30:51;;;;;;;9.63;5.40;;;0.30;99.90;;;;;;5068364;28;20419;-63
2021/04/07 03:33:23;;;;;;;10.00;5.15;;;2.90;99.90;;;;;;5070034;28;20508;-59
2021/04/07 03:35:50;;;;;;;9.93;5.22;;;1.50;99.90;;;;;;5068758;28;20395;-64
2021/04/07 03:38:16;;;;;;;8.97;4.90;;;0.20;99.90;;;;;;5051600;28;20757;-61
2021/04/07 03:40:43;;;;;;;11.20;4.83;;;2.00;99.90;;;;;;5068641;28;20421;-65
2021/04/07 03:43:13;;;;;;;10.55;3.97;;;2.30;99.90;;;;;;5070459;28;20458;-65
2021/04/07 03:45:43;;;;;;;11.75;5.10;;;2.00;99.90;;;;;;5067968;28;20857;-64
2021/04/07 03:48:11;;;;;;;9.65;4.47;;;2.60;99.90;;;;;;5052519;28;20379;-63
2021/04/07 03:50:40;;;;;;;7.55;4.18;;;0.10;99.90;;;;;;5067158;28;20404;-62
2021/04/07 03:53:07;;;;;;;11.82;4.88;;;1.10;99.90;;;;;;5069883;28;20846;-63
2021/04/07 03:55:32;;;;;;;7.95;4.40;;;0.20;99.90;;;;;;5066873;28;20399;-63
2021/04/07 03:57:58;;;;;;;8.00;4.33;;;2.00;99.90;;;;;;5070083;28;20396;-65
2021/04/07 04:00:24;;;;;;;9.00;4.03;;;0.50;99.90;;;;;;5067196;28;20431;-65
2021/04/07 04:02:50;;;;;;;9.13;3.80;;;0.30;99.90;;;;;;5070103;28;20395;-59
2021/04/07 04:05:15;;;;;;;7.85;3.88;;;0.20;99.90;;;;;;5068641;28;20406;-58
2021/04/07 04:07:41;;;;;;;8.80;4.30;;;0.20;99.90;;;;;;5068292;28;20396;-63
2021/04/07 04:10:07;;;;;;;7.40;4.30;;;0.30;99.90;;;;;;5068062;28;20785;-59
2021/04/07 04:12:33;;;;;;;8.60;4.07;;;0.30;99.90;;;;;;5069054;28;20496;-61
2021/04/07 04:14:59;;;;;;;8.73;4.27;;;2.50;99.90;;;;;;5068250;28;20407;-60
2021/04/07 04:17:24;;;;;;;9.97;4.20;;;2.30;99.90;;;;;;5069062;28;20463;-61
2021/04/07 04:19:50;;;;;;;7.22;3.53;;;0.80;99.90;;;;;;5068512;28;20453;-61
2021/04/07 04:22:16;;;;;;;8.70;3.78;;;2.20;99.90;;;;;;5069581;28;20400;-54
2021/04/07 04:24:42;;;;;;;7.50;3.53;;;0.80;99.90;;;;;;5067884;28;20403;-62
2021/04/07 04:27:08;;;;;;;8.88;3.90;;;0.10;99.90;;;;;;5068634;28;20878;-63
2021/04/07 04:29:34;;;;;;;9.57;4.00;;;1.30;99.90;;;;;;5068048;28;20400;-60
2021/04/07 04:32:00;;;;;;;10.48;3.80;;;1.50;99.90;;;;;;5067773;28;20400;-62
2021/04/07 04:34:26;;;;;;;10.10;4.10;;;0.30;99.90;;;;;;5068269;28;20483;-61
2021/04/07 04:36:52;;;;;;;6.93;3.30;;;0.10;99.90;;;;;;5065416;28;20392;-62
2021/04/07 04:39:17;;;;;;;8.57;4.10;;;0.20;99.90;;;;;;5068747;28;20368;-55
2021/04/07 04:41:43;;;;;;;7.97;3.60;;;0.10;99.90;;;;;;5067492;28;20415;-60
2021/04/07 04:44:09;;;;;;;6.93;3.70;;;0.10;99.90;;;;;;5068807;28;20384;-62
2021/04/07 04:46:35;;;;;;;6.88;3.42;;;3.00;99.90;;;;;;5068004;28;20861;-62
2021/04/07 04:49:01;;;;;;;11.50;3.47;;;0.30;99.90;;;;;;5067877;28;20485;-60
2021/04/07 04:51:26;;;;;;;8.02;3.53;;;0.20;99.90;;;;;;5068089;28;20423;-62
2021/04/07 04:53:52;;;;;;;7.40;3.50;;;0.30;99.90;;;;;;5067529;28;20405;-62
2021/04/07 04:56:18;;;;;;;8.00;3.40;;;0.30;99.90;;;;;;5067089;28;20399;-55
2021/04/07 04:58:43;;;;;;;6.38;3.55;;;0.30;99.90;;;;;;5069093;28;20502;-60
2021/04/07 05:01:09;;;;;;;6.90;3.53;;;0.40;99.90;;;;;;5067269;28;20769;-60
2021/04/07 05:03:35;;;;;;;8.90;3.75;;;0.40;99.90;;;;;;5068714;28;20557;-59
2021/04/07 05:06:02;;;;;;;6.72;3.50;;;1.60;99.90;;;;;;5069401;28;20745;-60
2021/04/07 05:08:27;;;;;;;7.40;3.70;;;0.50;99.90;;;;;;5072208;28;20382;-60
2021/04/07 05:10:53;;;;;;;7.45;3.53;;;2.10;99.90;;;;;;5071372;28;20781;-59
2021/04/07 05:13:19;;;;;;;7.30;3.50;;;0.50;99.90;;;;;;5072481;28;20380;-58
2021/04/07 05:15:44;;;;;;;7.60;3.30;;;0.60;99.90;;;;;;5071669;28;20387;-60
2021/04/07 05:18:15;;;;;;;9.47;3.30;;;0.60;99.90;;;;;;5072411;28;20457;-61
2021/04/07 05:20:42;;;;;;;9.93;4.45;;;0.50;99.90;;;;;;5070790;28;20503;-60
2021/04/07 05:23:09;;;;;;;7.30;3.47;;;2.80;99.90;;;;;;5073221;28;20429;-61
2021/04/07 05:25:36;;;;;;;7.22;3.70;;;1.80;99.90;;;;;;5070412;28;20394;-61
2021/04/07 05:28:05;;;;;;;7.72;3.70;;;2.70;99.90;;;;;;5072702;28;20388;-61
2021/04/07 05:33:18;;;;;;;7.45;3.50;;;0.40;99.90;;;;;;5072532;28;20746;-55
2021/04/07 05:35:44;;;;;;;11.23;5.40;;;0.90;99.90;;;;;;5070786;28;20494;-61
2021/04/07 05:38:10;;;;;;;8.93;4.20;;;0.50;99.90;;;;;;5072800;28;20426;-60
2021/04/07 05:40:35;;;;;;;8.50;4.10;;;0.40;99.90;;;;;;5069450;28;20502;-60
2021/04/07 05:43:02;;;;;;;8.93;3.42;;;1.30;99.90;;;;;;5073022;28;20479;-60
2021/04/07 05:45:28;;;;;;;9.90;3.72;;;0.30;99.90;;;;;;5070748;28;20414;-60
2021/04/07 05:47:54;;;;;;;9.50;4.20;;;1.30;99.90;;;;;;5071650;28;20392;-61
2021/04/07 05:50:19;;;;;;;8.97;3.53;;;1.60;99.90;;;;;;5071882;28;20475;-60
2021/04/07 05:52:49;;;;;;;10.37;4.03;;;0.50;99.90;;;;;;5068139;28;20442;-61
2021/04/07 05:55:16;;;;;;;10.00;3.53;;;0.50;99.90;;;;;;5065830;28;20399;-61
2021/04/07 05:57:41;;;;;;;8.43;3.25;;;0.30;99.90;;;;;;5069687;28;20787;-58
2021/04/07 06:00:07;;;;;;;8.20;3.90;;;0.40;99.90;;;;;;5070597;28;20411;-60
2021/04/07 06:02:33;;;;;;;8.90;3.30;;;0.30;99.90;;;;;;5069476;28;20426;-59
2021/04/07 06:04:59;;;;;;;11.97;3.80;;;0.30;99.90;;;;;;5071663;28;20837;-59
2021/04/07 06:07:24;;;;;;;7.27;3.40;;;0.40;99.90;;;;;;5069056;28;20403;-60
2021/04/07 06:09:50;;;;;;;9.82;4.30;;;0.40;99.90;;;;;;5069653;28;20387;-60
2021/04/07 06:12:15;;;;;;;12.03;4.30;;;0.40;99.90;;;;;;5071881;28;20388;-55
2021/04/07 06:14:41;;;;;;;8.27;3.73;;;0.50;99.90;;;;;;5069060;28;20452;-61
2021/04/07 06:17:07;;;;;;;7.82;3.10;;;0.60;99.90;;;;;;5070078;28;20383;-60
2021/04/07 06:19:32;;;;;;;10.45;4.20;;;0.90;99.90;;;;;;5069210;28;20398;-61
2021/04/07 06:21:58;;;;;;;8.23;3.50;;;0.70;99.90;;;;;;5070683;28;20404;-60
2021/04/07 06:24:23;;;;;;;10.13;4.18;;;0.90;99.90;;;;;;5070492;28;20754;-60
2021/04/07 06:26:49;;;;;;;6.00;3.30;;;1.10;99.90;;;;;;5071639;28;20384;-61
2021/04/07 06:29:15;;;;;;;8.80;3.60;;;1.20;99.90;;;;;;5070688;28;20418;-60
2021/04/07 06:31:40;;;;;;;6.43;3.03;;;2.10;99.90;;;;;;5070208;28;20399;-59
2021/04/07 06:34:06;;;;;;;6.32;2.90;;;1.60;99.90;;;;;;5070307;28;20446;-61
2021/04/07 06:36:32;;;;;;;9.80;3.53;;;1.10;99.90;;;;;;5069632;28;20403;-61
2021/04/07 06:38:57;;;;;;;7.65;2.92;;;1.00;99.90;;;;;;5070789;28;20396;-61
2021/04/07 06:41:23;;;;;;;6.72;2.80;;;1.20;99.90;;;;;;5070226;28;20941;-61
2021/04/07 06:43:50;;;;;;;7.70;3.03;;;0.80;99.90;;;;;;5050397;28;20409;-61
2021/04/07 06:46:20;;;;;;;8.90;2.70;;;3.70;99.90;;;;;;5070319;28;20376;-54
2021/04/07 06:48:47;;;;;;;6.18;2.85;;;3.90;99.90;;;;;;5069263;28;20600;-61
2021/04/07 06:51:17;;;;;;;9.18;3.20;;;2.20;99.90;;;;;;5051458;28;20778;-60
2021/04/07 06:53:45;;;;;;;6.80;3.08;;;2.80;99.90;;;;;;5070046;28;20854;-61
2021/04/07 06:56:13;;;;;;;6.05;2.28;;;4.00;99.90;;;;;;5071131;28;20485;-59
2021/04/07 06:58:39;;;;;;;6.60;3.00;;;4.10;99.90;;;;;;5068082;28;20400;-61
2021/04/07 07:01:04;;;;;;;5.90;2.63;;;3.50;99.90;;;;;;5070198;28;20468;-61
2021/04/07 07:03:30;;;;;;;6.30;2.47;;;3.40;99.90;;;;;;5068354;28;20434;-60
2021/04/07 07:05:58;;;;;;;5.60;2.60;;;3.40;99.90;;;;;;5050729;28;20385;-60
2021/04/07 07:08:24;;;;;;;6.85;2.55;;;3.90;99.90;;;;;;5050491;28;20377;-58
2021/04/07 07:10:53;;;;;;;7.10;2.70;;;4.10;99.90;;;;;;5060834;28;20400;-59
2021/04/07 07:13:23;;;;;;;7.20;2.30;;;3.90;99.90;;;;;;5070263;28;20372;-54
2021/04/07 07:15:50;;;;;;;6.32;2.25;;;2.80;99.90;;;;;;5069611;28;21122;-61
2021/04/07 07:18:23;;;;;;;5.80;2.60;;;3.30;99.90;;;;;;5069642;28;20403;-59
2021/04/07 07:20:49;;;;;;;9.20;2.30;;;4.30;99.90;;;;;;5068437;28;20501;-59
2021/04/07 07:23:32;;;;;;;5.97;2.30;;;4.70;99.90;;;;;;5070535;28;20474;-60
2021/04/07 07:26:06;;;;;;;5.70;1.90;;;4.60;99.90;;;;;;5069036;28;20404;-58
2021/04/07 07:28:41;;;;;;;6.80;2.60;;;4.80;99.90;;;;;;5069401;28;20809;-58
2021/04/07 07:31:30;;;;;;;6.57;2.60;;;4.50;99.90;;;;;;5050556;28;20458;-59
2021/04/07 07:33:57;;;;;;;5.22;2.25;;;4.60;99.90;;;;;;5070528;28;20849;-58
2021/04/07 07:36:24;;;;;;;6.30;2.90;;;4.30;99.90;;;;;;5067449;28;20396;-58
2021/04/07 07:38:56;;;;;;;8.20;2.55;;;5.60;99.90;;;;;;5068628;28;20388;-57
2021/04/07 07:41:36;;;;;;;9.05;2.50;;;6.10;99.90;;;;;;5068940;28;20443;-57
2021/04/07 07:44:03;;;;;;;7.20;2.40;;;5.20;99.90;;;;;;5069855;28;20388;-58
2021/04/07 07:46:31;;;;;;;5.22;1.90;;;4.40;99.90;;;;;;5049737;28;20432;-60
2021/04/07 07:48:59;;;;;;;5.85;2.65;;;3.60;99.90;;;;;;5068911;28;20440;-59
2021/04/07 07:51:26;;;;;;;5.90;2.20;;;3.30;99.90;;;;;;5067968;28;20482;-57
2021/04/07 07:53:53;;;;;;;8.80;2.50;;;3.00;99.90;;;;;;5068499;28;20383;-59
2021/04/07 07:56:22;;;;;;;7.87;2.67;;;3.20;99.90;;;;;;5069089;28;20411;-59
2021/04/07 07:58:50;;;;;;;7.03;2.60;;;4.20;99.90;;;;;;5068710;28;20396;-59
2021/04/07 08:01:17;;;;;;;9.45;2.05;;;4.40;99.90;;;;;;5069379;28;20420;-60
2021/04/07 08:03:47;;;;;;;4.63;1.70;;;3.60;99.90;;;;;;5068302;28;20384;-59
2021/04/07 08:06:14;;;;;;;8.00;2.20;;;3.40;99.90;;;;;;5069089;28;20392;-59
2021/04/07 08:08:40;;;;;;;6.07;2.30;;;3.40;99.90;;;;;;5067253;28;20492;-60
2021/04/07 08:11:07;;;;;;;9.40;3.53;;;3.50;99.90;;;;;;5068575;28;20467;-60
2021/04/07 08:13:38;;;;;;;5.90;2.35;;;3.90;99.90;;;;;;5067861;28;20400;-59
2021/04/07 08:16:05;;;;;;;5.90;1.80;;;4.00;99.90;;;;;;5068738;28;20455;-59
2021/04/07 08:18:31;;;;;;;4.65;1.80;;;3.30;99.90;;;;;;5067544;28;20428;-59
2021/04/07 08:20:58;;;;;;;6.80;2.30;;;2.90;99.90;;;;;;5068691;28;20411;-59
2021/04/07 08:23:26;;;;;;;5.43;1.80;;;3.00;99.90;;;;;;5063771;28;20490;-58
2021/04/07 08:25:55;;;;;;;8.25;2.55;;;2.90;99.90;;;;;;5069556;28;20746;-60
2021/04/07 08:28:22;;;;;;;7.47;2.22;;;2.70;99.90;;;;;;5067368;28;20403;-54
2021/04/07 08:30:48;;;;;;;8.00;2.20;;;2.80;99.90;;;;;;5069206;28;20388;-59
2021/04/07 08:33:18;;;;;;;7.10;2.47;;;2.80;99.90;;;;;;5067327;28;20498;-60
2021/04/07 08:35:45;;;;;;;6.65;1.80;;;3.10;99.90;;;;;;5068763;28;20872;-58
2021/04/07 08:38:10;;;;;;;6.47;2.10;;;3.10;99.90;;;;;;5068272;28;20452;-59
2021/04/07 08:40:38;;;;;;;8.30;2.30;;;3.10;99.90;;;;;;5069913;28;20431;-59
2021/04/07 08:43:05;;;;;;;5.28;2.10;;;3.30;99.90;;;;;;5071848;28;20479;-59
2021/04/07 08:45:48;;;;;;;5.57;2.25;;;3.50;99.90;;;;;;5072425;28;20382;-59
2021/04/07 08:48:19;;;;;;;6.80;3.00;;;3.50;99.90;;;;;;5073701;28;20537;-58
2021/04/07 08:50:47;;;;;;;6.95;2.45;;;3.60;99.90;;;;;;5071248;28;20399;-59
2021/04/07 08:53:18;;;;;;;9.13;2.33;;;3.10;99.90;;;;;;5071959;28;20388;-59
2021/04/07 08:55:55;;;;;;;6.90;2.50;;;2.90;99.90;;;;;;5070535;28;20399;-57
2021/04/07 08:58:23;;;;;;;5.60;2.37;;;2.60;99.90;;;;;;5072753;28;20419;-55
2021/04/07 09:00:53;;;;;;;6.90;2.80;;;2.30;99.90;;;;;;5053434;28;20422;-58
2021/04/07 09:03:23;;;;;;;8.93;3.07;;;2.10;99.90;;;;;;5055148;28;20953;-55
2021/04/07 09:05:49;;;;;;;8.70;3.87;;;1.70;99.90;;;;;;5053752;28;20824;-59
2021/04/07 09:08:17;;;;;;;10.70;3.05;;;2.00;99.90;;;;;;5072769;28;20372;-59
2021/04/07 09:10:49;;;;;;;7.68;3.35;;;2.30;99.90;;;;;;5072594;28;20529;-61
2021/04/07 09:13:26;;;;;;;8.65;3.38;;;2.20;99.90;;;;;;5071340;28;20474;-60
2021/04/07 09:16:02;;;;;;;6.50;2.67;;;2.20;99.90;;;;;;5072881;28;20461;-59
2021/04/07 09:18:38;;;;;;;6.90;3.20;;;2.20;99.90;;;;;;5070173;28;20403;-59
2021/04/07 09:21:10;;;;;;;7.55;3.05;;;2.40;99.90;;;;;;5073081;28;20411;-59
2021/04/07 09:23:37;;;;;;;5.93;2.63;;;2.40;99.90;;;;;;5053024;28;20402;-58
2021/04/07 09:26:09;;;;;;;6.80;2.35;;;2.30;99.90;;;;;;5086296;22;20426;-63
2021/04/07 09:28:41;;;;;;;7.88;3.30;;;2.40;99.90;;;;;;5071695;28;20380;-65
2021/04/07 09:31:18;;;;;;;6.10;2.33;;;2.50;99.90;;;;;;5070785;28;20402;-65
2021/04/07 09:33:50;;;;;;;5.75;2.67;;;2.70;99.90;;;;;;5071742;28;20710;-69
2021/04/07 09:36:18;;;;;;;10.00;2.60;;;3.10;99.90;;;;;;5070468;28;20391;-68
2021/04/07 09:38:49;;;;;;;6.55;2.63;;;3.90;99.90;;;;;;5071681;28;20383;-69
2021/04/07 09:41:26;;;;;;;5.80;2.47;;;3.10;99.90;;;;;;5070750;28;20439;-68
2021/04/07 09:43:53;;;;;;;9.95;3.22;;;3.70;99.90;;;;;;5071026;28;20387;-67
2021/04/07 09:46:20;;;;;;;7.40;2.70;;;4.40;99.90;;;;;;5072163;28;20432;-68
2021/04/07 09:48:54;;;;;;;6.90;2.63;;;4.60;99.90;;;;;;5071797;28;20402;-70
2021/04/07 09:51:24;;;;;;;7.68;2.60;;;3.90;99.90;;;;;;5070154;28;20426;-60
2021/04/07 09:53:51;;;;;;;5.88;2.40;;;1.90;99.90;;;;;;5071512;28;20953;-69
2021/04/07 09:56:17;;;;;;;6.90;2.27;;;4.00;99.90;;;;;;5070858;28;20404;-68
2021/04/07 09:58:52;;;;;;;7.03;2.80;;;3.90;99.90;;;;;;5068937;28;20399;-68
2021/04/07 10:01:19;;;;;;;7.85;2.75;;;3.80;99.90;;;;;;5071730;28;20498;-66
2021/04/07 10:03:52;;;;;;;5.43;2.00;;;3.80;99.90;;;;;;5068719;28;20396;-68
2021/04/07 10:06:25;;;;;;;7.00;2.50;;;3.30;99.90;;;;;;5071807;28;20753;-68
2021/04/07 10:09:02;;;;;;;7.47;2.83;;;3.50;99.90;;;;;;5066486;28;20718;-64
2021/04/07 10:11:29;;;;;;;5.72;2.55;;;3.20;99.90;;;;;;5070102;28;20440;-67
2021/04/07 10:13:59;;;;;;;5.88;2.47;;;3.10;99.90;;;;;;5069605;28;20384;-68
2021/04/07 10:16:25;;;;;;;6.43;2.40;;;2.90;99.90;;;;;;5070999;28;20459;-62
2021/04/07 10:18:52;;;;;;;7.95;2.80;;;2.90;99.90;;;;;;5069776;28;20391;-68
2021/04/07 10:21:19;;;;;;;6.85;2.70;;;3.90;99.90;;;;;;5072053;28;20407;-68
2021/04/07 10:23:47;;;;;;;7.85;2.60;;;2.90;99.90;;;;;;5068889;28;20407;-68
2021/04/07 10:26:14;;;;;;;7.88;2.60;;;3.30;99.90;;;;;;5071453;28;20411;-68
2021/04/07 10:28:40;;;;;;;8.98;2.47;;;2.70;99.90;;;;;;5069129;28;20387;-67
2021/04/07 10:31:12;;;;;;;5.50;1.85;;;4.80;99.90;;;;;;5069581;28;20404;-68
2021/04/07 10:33:38;;;;;;;8.57;2.63;;;2.80;99.90;;;;;;5070349;28;20912;-68
2021/04/07 10:36:04;;;;;;;7.68;2.80;;;2.90;99.90;;;;;;5070951;28;20825;-62
2021/04/07 10:38:35;;;;;;;6.78;2.35;;;3.00;99.90;;;;;;5069518;28;20490;-68
2021/04/07 10:41:05;;;;;;;5.30;2.40;;;3.00;99.90;;;;;;5071375;28;20407;-68
2021/04/07 10:43:33;;;;;;;5.35;2.17;;;3.00;99.90;;;;;;5050831;28;20825;-65
2021/04/07 10:46:04;;;;;;;6.60;1.88;;;2.80;99.90;;;;;;5071128;28;20494;-67
2021/04/07 10:48:30;;;;;;;5.50;1.90;;;3.10;99.90;;;;;;5069030;28;20387;-66
2021/04/07 10:50:58;;;;;;;5.10;1.90;;;3.40;99.90;;;;;;5071280;28;20403;-68
2021/04/07 10:53:32;;;;;;;5.53;2.00;;;3.60;99.90;;;;;;5068961;28;20857;-62
2021/04/07 10:55:59;;;;;;;5.47;2.00;;;4.10;99.90;;;;;;5071433;28;20445;-69
2021/04/07 10:58:27;;;;;;;5.93;2.70;;;4.20;99.90;;;;;;5070211;28;20862;-69
2021/04/07 11:00:53;;;;;;;5.50;2.40;;;4.40;99.90;;;;;;5069064;28;20414;-68
2021/04/07 11:03:32;;;;;;;6.70;2.30;;;4.50;99.90;;;;;;5069434;28;20429;-68
2021/04/07 11:05:58;;;;;;;5.55;2.20;;;4.40;99.90;;;;;;5069341;28;20936;-68
2021/04/07 11:08:34;;;;;;;5.57;1.50;;;4.70;99.90;;;;;;5070486;28;20380;-60
2021/04/07 11:11:00;;;;;;;6.07;1.70;;;4.60;99.90;;;;;;5068573;28;20391;-69
2021/04/07 11:13:26;;;;;;;5.07;1.80;;;4.40;99.90;;;;;;5070124;28;20433;-66
2021/04/07 11:15:52;;;;;;;8.43;2.00;;;4.60;99.90;;;;;;5070802;28;20888;-68
2021/04/07 11:18:30;;;;;;;6.00;2.03;;;4.80;99.90;;;;;;5069172;28;20423;-69
2021/04/07 11:20:56;;;;;;;4.80;1.60;;;5.60;99.90;;;;;;5070357;28;20422;-69
2021/04/07 11:23:22;;;;;;;6.50;1.70;;;5.30;99.90;;;;;;5051543;28;20868;-61
2021/04/07 11:25:48;;;;;;;5.10;1.70;;;2.60;99.90;;;;;;5068927;28;20482;-68
2021/04/07 11:28:18;;;;;;;4.10;1.40;;;5.00;99.90;;;;;;5069606;28;20380;-68
2021/04/07 11:46:33;;;;;;;5.68;1.55;;;5.40;97.90;;;;;;5069269;28;20376;-69
2021/04/07 11:48:59;;;;;;;6.78;1.88;;;5.30;98.10;;;;;;5068469;28;20434;-68
2021/04/07 11:51:25;;;;;;;6.25;1.98;;;4.90;97.90;;;;;;5069049;28;20415;-59
2021/04/07 11:53:51;;;;;;;11.80;1.67;;;4.70;99.80;;;;;;5069961;28;20376;-67
2021/04/07 11:56:17;;;;;;;4.82;1.33;;;4.40;98.70;;;;;;5067748;28;20411;-68
2021/04/07 11:58:43;;;;;;;5.78;1.70;;;4.10;99.90;;;;;;5068947;28;20406;-66
2021/04/07 12:01:09;;;;;;;8.95;2.70;;;3.70;99.90;;;;;;5069860;28;20932;-66
2021/04/07 12:03:35;;;;;;;5.03;1.70;;;3.70;99.90;;;;;;5067368;28;20387;-69
2021/04/07 12:06:01;;;;;;;6.15;2.00;;;4.20;99.90;;;;;;5068186;28;20490;-68
2021/04/07 12:08:27;;;;;;;4.88;1.80;;;4.30;99.90;;;;;;5049126;28;20981;-59
2021/04/07 12:10:53;;;;;;;6.00;1.90;;;3.80;99.90;;;;;;5070276;28;20379;-70
2021/04/07 12:13:18;;;;;;;8.70;2.10;;;4.00;99.90;;;;;;5067724;28;20944;-64
2021/04/07 12:15:44;;;;;;;6.57;1.93;;;4.40;99.90;;;;;;5067953;28;21043;-65
2021/04/07 12:18:10;;;;;;;7.43;2.55;;;4.20;99.90;;;;;;5068646;28;20399;-66
2021/04/07 12:20:36;;;;;;;8.20;2.80;;;4.00;99.90;;;;;;5067152;28;20498;-66
2021/04/07 12:23:02;;;;;;;7.07;2.10;;;4.20;99.90;;;;;;5069600;28;20759;-65
2021/04/07 12:25:28;;;;;;;6.50;2.58;;;4.40;99.90;;;;;;5048178;28;20412;-65
2021/04/07 12:27:55;;;;;;;6.40;2.15;;;4.40;99.90;;;;;;5067603;28;20426;-65
2021/04/07 12:30:21;;;;;;;5.38;1.85;;;4.20;99.90;;;;;;5063507;28;20388;-64
2021/04/07 12:32:47;;;;;;;7.43;2.22;;;3.90;99.90;;;;;;5066680;28;20396;-64
2021/04/07 12:35:14;;;;;;;8.02;2.42;;;4.10;99.90;;;;;;5060511;28;20404;-65
2021/04/07 12:37:43;;;;;;;7.70;2.10;;;4.40;99.90;;;;;;5063869;28;20470;-64
2021/04/07 12:40:10;;;;;;;5.40;1.73;;;4.60;99.90;;;;;;5063135;28;20397;-66
2021/04/07 12:42:36;;;;;;;7.70;2.70;;;4.60;99.90;;;;;;5057071;28;20400;-67
2021/04/07 12:45:05;;;;;;;5.93;2.10;;;4.90;99.90;;;;;;5066773;28;20885;-67
2021/04/07 12:47:31;;;;;;;4.80;1.70;;;4.90;99.90;;;;;;5058717;28;20855;-66
2021/04/07 12:49:56;;;;;;;6.90;2.50;;;4.80;99.90;;;;;;5065157;28;20394;-66
2021/04/07 12:52:22;;;;;;;7.88;2.20;;;4.60;99.90;;;;;;5069343;28;20861;-64
2021/04/07 12:54:47;;;;;;;6.50;2.03;;;4.30;99.90;;;;;;5067084;28;20400;-64
2021/04/07 12:57:13;;;;;;;7.97;2.40;;;3.90;99.90;;;;;;5068752;28;20547;-65
2021/04/07 12:59:40;;;;;;;7.20;2.60;;;3.60;99.90;;;;;;5068407;28;20375;-66
2021/04/07 13:02:06;;;;;;;4.95;1.80;;;3.50;99.90;;;;;;5067394;28;20443;-66
2021/04/07 13:04:31;;;;;;;10.45;3.05;;;3.40;99.90;;;;;;5055998;28;20472;-65
2021/04/07 13:06:57;;;;;;;8.30;2.80;;;3.20;99.90;;;;;;5066461;28;20463;-65
2021/04/07 13:09:23;;;;;;;8.20;2.30;;;3.20;99.90;;;;;;5052516;28;20516;-65
2021/04/07 13:11:48;;;;;;;8.02;2.30;;;3.10;99.90;;;;;;5068113;28;20924;-64